カラチ の空港の天気 - METARとTAF

ジンナー国際空港(カラチ) ( OPKC / KHI ) - パキスタン Karachi
飛行場実況気象(Metar)
観測時間05/20 08:30 PKT (05/20 03:30 UTC)
風向・風速西 6m/s
視程4000m
天気現象
全天の4割程度の雲 雲底高度 610m
気温30℃
湿度62%
気圧1004hPa
METAROPKC 200330Z 27011KT 4000 FU SCT020 30/22 Q1004 NOSIG
過去の天気等 Google飛行場航空写真 Wunderground天気予報

過去48時間のMETAR

飛行場予報(TAF)
発表時間: 5/20 02:30 PKT (5/19 21:30 UTC)
予報対象時間: 20日5時 PKT ~ 21日11時 PKT
風向・風速西南西 5m/s
視程5000m
天気現象
なし
20日5時 PKT ~ 20日9時 PKT に一時的に
風向・風速西 5m/s
視程3000m
天気現象
なし
21日0時 PKT から
風向・風速西 5m/s
視程5000m
天気現象煙霧
なし
21日10時 PKT から
風向・風速南西 5m/s 瞬間風速 10m/s
視程6000m
なし
TAF OPKC 192130Z 2000/2106 25010KT 5000 FU NSC
TEMPO 2000/2004 27010KT 3000 FU NSC
FM201900 26010KT 5000 HZ NSC
FM210500 23010G20KT 6000 NSC